sensor_id;sensor_type;location;lat;lon;timestamp;pressure;altitude;pressure_sealevel;temperature;humidity
71642;BME280;60657;50.122;14.468;2023-01-24T00:02:52;100066.2825186261;;;2.483787289234762;85.0429541466392
71642;BME280;60657;50.122;14.468;2023-01-24T00:05:57;100073.66619028487;;;2.4357213702601683;85.14404516670481
71642;BME280;60657;50.122;14.468;2023-01-24T00:08:59;100075.53128181536;;;2.4731059739070744;84.95140001525903
71642;BME280;60657;50.122;14.468;2023-01-24T00:12:01;100061.44392088264;;;2.3983367666132622;84.87319752803845
71642;BME280;60657;50.122;14.468;2023-01-24T00:15:04;100065.5180788691;;;2.4650949874113053;85.14023041123065
71642;BME280;60657;50.122;14.468;2023-01-24T00:18:08;100067.72702577038;;;2.3849851224536494;85.23941405355917
71642;BME280;60657;50.122;14.468;2023-01-24T00:21:11;100056.43765228183;;;2.4517433432516995;85.06012054627298
71642;BME280;60657;50.122;14.468;2023-01-24T00:24:15;100056.43765228183;;;2.4597543297474616;85.02578774700542
71642;BME280;60657;50.122;14.468;2023-01-24T00:27:18;100054.99197957791;;;2.4650949874113053;84.80262455176623
71642;BME280;60657;50.122;14.468;2023-01-24T00:30:20;100058.71854382682;;;2.57190814068818;84.71297779812313
71642;BME280;60657;50.122;14.468;2023-01-24T00:59:17;100078.92515144673;;;2.505149919890137;85.04104676890212
71642;BME280;60657;50.122;14.468;2023-01-24T01:02:20;100085.88784601871;;;2.4650949874113053;85.21652552071413
71642;BME280;60657;50.122;14.468;2023-01-24T01:05:22;100086.90533665926;;;2.446402685587856;85.29854276340886
71642;BME280;60657;50.122;14.468;2023-01-24T01:08:25;100092.08108007594;;;2.4357213702601683;85.16311894407569
71642;BME280;60657;50.122;14.468;2023-01-24T01:11:27;100098.27856472242;;;2.382314793621731;85.35767147325856
71642;BME280;60657;50.122;14.468;2023-01-24T01:14:29;100100.7398136379;;;2.4517433432516995;85.29854276340886
71642;BME280;60657;50.122;14.468;2023-01-24T01:17:32;100087.8382286374;;;2.499809262226293;85.06775005722133
71642;BME280;60657;50.122;14.468;2023-01-24T01:20:34;100098.78563182076;;;2.5185015640497426;85.15739681086443
71642;BME280;60657;50.122;14.468;2023-01-24T01:23:36;100098.02124519732;;;2.545204852368961;84.98191805905242
71642;BME280;60657;50.122;14.468;2023-01-24T01:26:39;100098.02124519732;;;2.521171892881668;84.92851148241398
71642;BME280;60657;50.122;14.468;2023-01-24T01:29:41;100102.35235823544;;;2.411688410772868;85.23750667582208
71642;BME280;60657;50.122;14.468;2023-01-24T01:32:44;100099.9759092494;;;2.449073014419774;85.29282063019761
71642;BME280;60657;50.122;14.468;2023-01-24T01:35:46;100099.54995635654;;;2.5345235370412738;85.1020828564889
71642;BME280;60657;50.122;14.468;2023-01-24T01:38:49;100103.37064779032;;;2.5265125505455117;85.15930418860151
71642;BME280;60657;50.122;14.468;2023-01-24T01:41:52;100104.2136553845;;;2.646677347981992;84.76447699702449
71642;BME280;60657;50.122;14.468;2023-01-24T01:44:54;100099.28975369575;;;2.5692378118562615;84.90371557183184
71642;BME280;60657;50.122;14.468;2023-01-24T01:47:57;100104.29750608375;;;2.6413366903181483;84.75303273060197
71642;BME280;60657;50.122;14.468;2023-01-24T01:51:04;100104.04570844986;;;2.5692378118562615;84.92278934920272
71642;BME280;60657;50.122;14.468;2023-01-24T01:54:16;100104.81025256701;;;2.6119630731670114;84.74731059739071
71642;BME280;60657;50.122;14.468;2023-01-24T01:57:24;100104.0497751674;;;2.4891279468986056;85.25848783093004
71642;BME280;60657;50.122;14.468;2023-01-24T02:00:31;100097.2567964842;;;2.5104905775539805;85.2642099641413
71642;BME280;60657;50.122;14.468;2023-01-24T02:03:35;100103.53990379577;;;2.5024795910582114;85.27565423056382
71642;BME280;60657;50.122;14.468;2023-01-24T02:06:46;100111.34695472631;;;2.542534523537043;85.25848783093004
71642;BME280;60657;50.122;14.468;2023-01-24T02:09:56;100106.24574244056;;;2.697413595788511;84.62523842221714
71642;BME280;60657;50.122;14.468;2023-01-24T02:12:59;100100.81922892111;;;2.5532158388647304;84.79690241855496
71642;BME280;60657;50.122;14.468;2023-01-24T02:16:02;100105.14611518069;;;2.654688334477761;84.92660410467688
71642;BME280;60657;50.122;14.468;2023-01-24T02:19:05;100108.1207161036;;;2.63866636148623;84.78927290760662
71642;BME280;60657;50.122;14.468;2023-01-24T02:22:17;100094.69983743342;;;2.6573586633096795;84.76829175249867
71642;BME280;60657;50.122;14.468;2023-01-24T02:25:30;100108.44265766467;;;2.6146334019989297;84.74349584191653
71642;BME280;60657;50.122;14.468;2023-01-24T02:28:38;100105.73072308674;;;2.579919127183949;84.91325246051728
71642;BME280;60657;50.122;14.468;2023-01-24T02:31:55;100095.63162419123;;;2.625314717326617;84.68436713206684
71642;BME280;60657;50.122;14.468;2023-01-24T02:34:59;100096.66020950388;;;2.587930113679711;84.81025406271458
71642;BME280;60657;50.122;14.468;2023-01-24T02:38:03;100097.2567964842;;;2.5398641947051175;84.94377050431068
71642;BME280;60657;50.122;14.468;2023-01-24T02:41:08;100095.81164158607;;;2.563897154192418;84.87319752803845
71642;BME280;60657;50.122;14.468;2023-01-24T02:44:13;100093.7679572757;;;2.630655374990461;84.69581139848935
71642;BME280;60657;50.122;14.468;2023-01-24T02:47:22;100094.8791411746;;;2.521171892881668;84.75303273060197
71642;BME280;60657;50.122;14.468;2023-01-24T02:50:29;100088.43358991816;;;2.449073014419774;84.97428854810407
71642;BME280;60657;50.122;14.468;2023-01-24T02:53:33;100088.77102735236;;;2.5265125505455117;84.99145494773785
71642;BME280;60657;50.122;14.468;2023-01-24T02:56:36;100081.97275666209;;;2.563897154192418;84.73777370870528
71642;BME280;60657;50.122;14.468;2023-01-24T02:59:38;100082.65415626268;;;2.537193865873199;84.81406881818876
71642;BME280;60657;50.122;14.468;2023-01-24T03:02:40;100081.98270880873;;;2.4731059739070744;84.70725566491188
71642;BME280;60657;50.122;14.468;2023-01-24T03:05:43;100087.07392298238;;;2.550545510032805;84.7778286411841
71642;BME280;60657;50.122;14.468;2023-01-24T03:08:45;100082.65415626268;;;2.5265125505455117;84.74540321965362
71642;BME280;60657;50.122;14.468;2023-01-24T03:11:48;100083.07115147555;;;2.542534523537043;84.73777370870528
71642;BME280;60657;50.122;14.468;2023-01-24T03:14:51;100083.15430494542;;;2.6653696498054487;84.40016784924086
71642;BME280;60657;50.122;14.468;2023-01-24T03:17:57;100085.88072436098;;;2.5692378118562615;84.49172198062104
71642;BME280;60657;50.122;14.468;2023-01-24T03:21:00;100093.69397782217;;;2.5265125505455117;84.74731059739071
71642;BME280;60657;50.122;14.468;2023-01-24T03:24:03;100086.1315643614;;;2.5558861676966487;84.48599984740979
71642;BME280;60657;50.122;14.468;2023-01-24T03:27:07;100091.82027631608;;;2.513160906385899;84.68627450980392
71642;BME280;60657;50.122;14.468;2023-01-24T03:30:10;100096.32403455736;;;2.4731059739070744;84.65766384374761
71642;BME280;60657;50.122;14.468;2023-01-24T03:33:13;100089.45104617545;;;2.5398641947051175;84.66529335469596
71642;BME280;60657;50.122;14.468;2023-01-24T03:36:15;100097.68382364363;;;2.507820248722055;84.57755397878996
71642;BME280;60657;50.122;14.468;2023-01-24T03:39:18;100095.72771278107;;;2.566567483024336;84.56038757915617
71642;BME280;60657;50.122;14.468;2023-01-24T03:42:20;100087.32618896925;;;2.441062027924012;84.74158846417944
71642;BME280;60657;50.122;14.468;2023-01-24T03:45:23;100093.52518906207;;;2.4597543297474616;84.89608606088349
71642;BME280;60657;50.122;14.468;2023-01-24T03:48:28;100089.10715596363;;;2.483787289234762;84.75112535286488
71642;BME280;60657;50.122;14.468;2023-01-24T03:51:30;100097.68382364363;;;2.454413672083618;84.7339589532311
71642;BME280;60657;50.122;14.468;2023-01-24T03:54:33;100097.09018718344;;;2.3716334782940436;84.89799343862059
71642;BME280;60657;50.122;14.468;2023-01-24T03:57:35;100093.69397782217;;;2.4677653162432307;84.81597619592584
71642;BME280;60657;50.122;14.468;2023-01-24T04:00:38;100092.16820316063;;;2.360952162966356;84.97619592584115
71642;BME280;60657;50.122;14.468;2023-01-24T04:03:41;100091.48935160146;;;2.483787289234762;84.87510490577554
71642;BME280;60657;50.122;14.468;2023-01-24T04:06:43;100089.96159489358;;;2.4437323567559304;84.78736552986953
71642;BME280;60657;50.122;14.468;2023-01-24T04:09:46;100099.63629122941;;;2.3876554512855748;84.93804837109941
71642;BME280;60657;50.122;14.468;2023-01-24T04:12:48;100105.74342153016;;;2.2968642710002314;85.16311894407569
71642;BME280;60657;50.122;14.468;2023-01-24T04:15:53;100082.40896023039;;;2.3342488746471375;85.31570916304265
71642;BME280;60657;50.122;14.468;2023-01-24T04:18:55;100093.26880540403;;;2.2701609826810127;85.31952391851682
71642;BME280;60657;50.122;14.468;2023-01-24T04:21:58;100080.45744346826;;;2.3342488746471375;85.16311894407569
71642;BME280;60657;50.122;14.468;2023-01-24T04:25:00;100081.30602702411;;;2.3796444647898056;84.94949263752193
71642;BME280;60657;50.122;14.468;2023-01-24T04:28:03;100085.03927296778;;;2.433051041428243;84.95140001525903
71642;BME280;60657;50.122;14.468;2023-01-24T04:31:05;100089.96159489358;;;2.4517433432516995;84.74349584191653
71642;BME280;60657;50.122;14.468;2023-01-24T04:34:08;100089.79208957448;;;2.433051041428243;84.70916304264897
71642;BME280;60657;50.122;14.468;2023-01-24T04:37:10;100094.37372735252;;;2.3048752574959934;85.03150988021667
71642;BME280;60657;50.122;14.468;2023-01-24T04:40:13;100091.8276509257;;;2.2568093385214;85.16884107728694
71642;BME280;60657;50.122;14.468;2023-01-24T04:43:15;100100.82192836076;;;2.2755016403448565;84.99526970321202
71642;BME280;60657;50.122;14.468;2023-01-24T04:46:18;100093.35429568226;;;2.278171969176775;85.1459525444419
71642;BME280;60657;50.122;14.468;2023-01-24T05:15:10;100101.83262803881;;;2.243457694361794;85.3538567177844
71642;BME280;60657;50.122;14.468;2023-01-24T05:18:13;100103.87431028666;;;2.264820325017169;85.23369192034791
71642;BME280;60657;50.122;14.468;2023-01-24T05:21:17;100104.88273948745;;;2.1580071717402944;85.50644693675136
71642;BME280;60657;50.122;14.468;2023-01-24T05:24:20;100101.83262803881;;;2.2007324330510443;85.41870756084535
71642;BME280;60657;50.122;14.468;2023-01-24T05:27:22;100112.78168361471;;;2.2915236133363877;85.22987716487373
71642;BME280;60657;50.122;14.468;2023-01-24T05:30:25;100114.30702479217;;;2.235446707866025;85.19935912108033
71642;BME280;60657;50.122;14.468;2023-01-24T05:33:27;100125.2391321041;;;2.1499961852445253;85.60944533455405
71642;BME280;60657;50.122;14.468;2023-01-24T05:36:31;100115.74561959019;;;2.2381170366979504;85.40344853894865
71642;BME280;60657;50.122;14.468;2023-01-24T05:39:33;100118.11929227444;;;2.1820401312275877;85.27374685282673
71642;BME280;60657;50.122;14.468;2023-01-24T05:42:36;100116.160893832;;;2.1232928969253066;85.69909208819715
71642;BME280;60657;50.122;14.468;2023-01-24T05:45:38;100120.16325696939;;;2.2674906538490873;85.3519493400473
71642;BME280;60657;50.122;14.468;2023-01-24T05:48:41;100119.31430419935;;;2.2808422980087;85.17074845502404
71642;BME280;60657;50.122;14.468;2023-01-24T05:51:45;100126.53643340514;;;2.315556572823681;85.27183947508965
71642;BME280;60657;50.122;14.468;2023-01-24T05:54:48;100120.8552687231;;;2.4357213702601683;84.87891966124971
71642;BME280;60657;50.122;14.468;2023-01-24T05:57:53;100125.35350807058;;;2.470435645075149;84.85412375066758
71642;BME280;60657;50.122;14.468;2023-01-24T06:00:57;100132.31417877584;;;2.499809262226293;84.56801709010452
71642;BME280;60657;50.122;14.468;2023-01-24T06:04:00;100136.3883352209;;;2.5318532082093554;84.69581139848935
71642;BME280;60657;50.122;14.468;2023-01-24T06:07:03;100135.7949421337;;;2.579919127183949;84.57755397878996
71642;BME280;60657;50.122;14.468;2023-01-24T06:10:06;100138.00090756007;;;2.4891279468986056;84.424963759823
71642;BME280;60657;50.122;14.468;2023-01-24T06:13:13;100139.52797477695;;;2.507820248722055;84.62523842221714
71642;BME280;60657;50.122;14.468;2023-01-24T06:16:18;100144.45085572138;;;2.499809262226293;84.69008926527809
71642;BME280;60657;50.122;14.468;2023-01-24T06:19:23;100149.71607278952;;;2.5692378118562615;84.77592126344702
71642;BME280;60657;50.122;14.468;2023-01-24T06:22:28;100153.1122373822;;;2.6066224155031676;84.4554818036164
71642;BME280;60657;50.122;14.468;2023-01-24T06:25:43;100157.95021873276;;;2.5104905775539805;84.67101548790723
71642;BME280;60657;50.122;14.468;2023-01-24T06:28:46;100163.29327993008;;;2.5158312352178243;84.73968108644236
71642;BME280;60657;50.122;14.468;2023-01-24T06:31:54;100162.77518559153;;;2.4010070954451805;85.07728694590676
71642;BME280;60657;50.122;14.468;2023-01-24T06:35:11;100160.4005930296;;;2.4437323567559304;85.14023041123065
71642;BME280;60657;50.122;14.468;2023-01-24T06:38:28;100162.4281544751;;;2.3662928206302;85.46639200427252
71642;BME280;60657;50.122;14.468;2023-01-24T06:41:31;100175.1675003429;;;2.4010070954451805;85.22224765392538
71642;BME280;60657;50.122;14.468;2023-01-24T06:44:36;100169.82836718316;;;2.4437323567559304;85.06965743495842
71642;BME280;60657;50.122;14.468;2023-01-24T06:47:45;100164.64664316892;;;2.4010070954451805;85.06393530174716
71642;BME280;60657;50.122;14.468;2023-01-24T06:50:49;100179.2404605092;;;2.4090180819409497;85.36530098420691
71642;BME280;60657;50.122;14.468;2023-01-24T06:53:53;100174.40495322227;;;2.470435645075149;85.26611734187838
71642;BME280;60657;50.122;14.468;2023-01-24T06:56:57;100179.91581316094;;;2.441062027924012;85.51979858091096
71642;BME280;60657;50.122;14.468;2023-01-24T07:00:00;100193.1772635247;;;2.513160906385899;85.08110170138094
71642;BME280;60657;50.122;14.468;2023-01-24T07:03:05;100183.244204415;;;2.499809262226293;85.24132143129626
71642;BME280;60657;50.122;14.468;2023-01-24T07:06:09;100190.71556681376;;;2.5318532082093554;85.0582131685359
71642;BME280;60657;50.122;14.468;2023-01-24T07:09:13;100191.65131089416;;;2.537193865873199;84.92851148241398
71642;BME280;60657;50.122;14.468;2023-01-24T07:12:17;100197.25123317471;;;2.537193865873199;85.0429541466392
71642;BME280;60657;50.122;14.468;2023-01-24T07:15:20;100193.1772635247;;;2.5398641947051175;85.10780498970016
71642;BME280;60657;50.122;14.468;2023-01-24T07:18:24;100190.80194503328;;;2.521171892881668;85.00671396963455
71642;BME280;60657;50.122;14.468;2023-01-24T07:21:33;100194.78955245679;;;2.5104905775539805;85.24322880903334
71642;BME280;60657;50.122;14.468;2023-01-24T07:24:42;100193.78060188456;;;2.6493476768139175;84.73205157549401
71642;BME280;60657;50.122;14.468;2023-01-24T07:27:46;100197.85544391918;;;2.63866636148623;84.6462195773251
71642;BME280;60657;50.122;14.468;2023-01-24T07:30:50;100190.4691813618;;;2.617303730830855;84.79880979629206
71642;BME280;60657;50.122;14.468;2023-01-24T07:33:55;100191.65131089416;;;2.5558861676966487;85.00671396963455
71642;BME280;60657;50.122;14.468;2023-01-24T07:36:59;100201.5105966507;;;2.7000839246204293;84.68245975432974
71642;BME280;60657;50.122;14.468;2023-01-24T07:40:08;100201.5105966507;;;2.6707103074692924;84.54322117952239
71642;BME280;60657;50.122;14.468;2023-01-24T07:43:13;100203.629045152;;;2.6733806363012107;84.70916304264897
71642;BME280;60657;50.122;14.468;2023-01-24T07:46:16;100209.6611136926;;;2.7321278706034917;84.6290531776913
71642;BME280;60657;50.122;14.468;2023-01-24T07:49:20;100208.98353271553;;;2.7748531319142415;84.4097047379263
71642;BME280;60657;50.122;14.468;2023-01-24T07:52:23;100208.55327930824;;;2.6440070191500737;84.7186999313344
71642;BME280;60657;50.122;14.468;2023-01-24T07:55:26;100219.85467627396;;;2.7962157625696165;84.3505760280766
71642;BME280;60657;50.122;14.468;2023-01-24T07:58:29;100210.34650936775;;;2.8042267490653856;84.32578011749447
71642;BME280;60657;50.122;14.468;2023-01-24T08:01:32;100221.13264459689;;;2.822919050888835;84.35629816128787
71642;BME280;60657;50.122;14.468;2023-01-24T08:04:35;100214.4226628379;;;2.7668421454184795;84.55848020141909
71642;BME280;60657;50.122;14.468;2023-01-24T08:07:37;100219.2625695177;;;2.793545433737698;84.54512855725947
71642;BME280;60657;50.122;14.468;2023-01-24T08:10:40;100220.5322021704;;;2.7508201724269483;84.55085069047074
71642;BME280;60657;50.122;14.468;2023-01-24T08:13:43;100223.68102282689;;;2.8042267490653856;84.11406118867781
71642;BME280;60657;50.122;14.468;2023-01-24T08:16:46;100223.25266220322;;;2.742809185931179;84.36774242771038
71642;BME280;60657;50.122;14.468;2023-01-24T08:19:49;100219.6826962254;;;2.713435568780042;84.65766384374761
71642;BME280;60657;50.122;14.468;2023-01-24T08:22:53;100214.76389384897;;;2.878995956359198;84.2914473182269
71642;BME280;60657;50.122;14.468;2023-01-24T08:25:56;100222.23818032032;;;2.8416113527122917;84.08163576714733
71642;BME280;60657;50.122;14.468;2023-01-24T08:28:59;100219.35061452039;;;2.91103990234226;83.97482261387044
71642;BME280;60657;50.122;14.468;2023-01-24T08:32:02;100218.92414553424;;;2.916380560006104;83.95002670328832
71642;BME280;60657;50.122;14.468;2023-01-24T08:35:04;100225.29630776004;;;2.9564354924849283;83.69443808651866
71642;BME280;60657;50.122;14.468;2023-01-24T08:38:08;100225.63453995678;;;3.0312046997787476;83.63340199893187
71642;BME280;60657;50.122;14.468;2023-01-24T08:41:10;100232.26078661712;;;3.0872816052491032;83.55901426718547
71642;BME280;60657;50.122;14.468;2023-01-24T08:44:13;100222.7421788439;;;3.1326771953917785;83.34920271610589
71642;BME280;60657;50.122;14.468;2023-01-24T08:47:16;100222.90988165981;;;3.159380483710997;83.13366903181506
71642;BME280;60657;50.122;14.468;2023-01-24T08:50:19;100229.20060491473;;;3.0899519340810286;83.29961089494164
71642;BME280;60657;50.122;14.468;2023-01-24T08:53:23;100227.83807747686;;;3.049897001602197;83.26718547341116
71642;BME280;60657;50.122;14.468;2023-01-24T08:56:25;100229.18920152055;;;3.0952925917448724;83.28435187304494
71642;BME280;60657;50.122;14.468;2023-01-24T08:59:28;100237.694494196;;;3.055237659266041;83.2462043183032
71642;BME280;60657;50.122;14.468;2023-01-24T09:02:30;100233.87510687107;;;2.9938200961318344;83.39497978179598
71642;BME280;60657;50.122;14.468;2023-01-24T09:53:03;100266.6447298673;;;3.4637979705500896;82.01976043335623
71642;BME280;60657;50.122;14.468;2023-01-24T09:56:07;100265.19436967465;;;3.5011825741969957;81.73365377279316
71642;BME280;60657;50.122;14.468;2023-01-24T09:59:32;100265.27705442547;;;3.4851606012054646;81.99877927824826
71642;BME280;60657;50.122;14.468;2023-01-24T10:02:43;100255.49699834983;;;3.5732814526588825;81.94155794613565
71642;BME280;60657;50.122;14.468;2023-01-24T10:05:46;100253.96287040503;;;3.5492484931715893;82.00068665598535
71642;BME280;60657;50.122;14.468;2023-01-24T10:08:53;100259.99019073443;;;3.6747539482719134;81.87861448081178
71642;BME280;60657;50.122;14.468;2023-01-24T10:12:12;100267.19379199047;;;3.714808880750745;81.3598077363241
71642;BME280;60657;50.122;14.468;2023-01-24T10:15:30;100260.92151125442;;;3.642710002288851;81.51049057755398
71642;BME280;60657;50.122;14.468;2023-01-24T10:18:50;100261.16699511204;;;3.6907759212634446;81.34836346990159
71642;BME280;60657;50.122;14.468;2023-01-24T10:22:19;100253.6052095192;;;3.62668802929732;81.54100862134737
71642;BME280;60657;50.122;14.468;2023-01-24T10:25:47;100243.37911201818;;;3.7335011825741944;81.5505455100328
71642;BME280;60657;50.122;14.468;2023-01-24T10:28:55;100248.99872807426;;;3.7254901960784323;81.32928969253071
71642;BME280;60657;50.122;14.468;2023-01-24T10:32:10;100249.24210135931;;;3.8082703898680066;81.32547493705654
71642;BME280;60657;50.122;14.468;2023-01-24T10:35:21;100236.14138595093;;;3.818951705195694;81.07179369802395
71642;BME280;60657;50.122;14.468;2023-01-24T10:38:31;100244.59013132747;;;3.664072632944226;81.54291599908446
71642;BME280;60657;50.122;14.468;2023-01-24T10:41:37;100249.60382191316;;;3.6961165789272883;81.23773556115053
71642;BME280;60657;50.122;14.468;2023-01-24T10:44:40;100247.46273583152;;;3.701457236591132;81.35790035858702
71642;BME280;60657;50.122;14.468;2023-01-24T10:47:44;100242.24579307385;;;3.752193484397651;81.11947814145114
71642;BME280;60657;50.122;14.468;2023-01-24T10:50:53;100239.2954199367;;;3.709468223086901;81.22629129472801
71642;BME280;60657;50.122;14.468;2023-01-24T10:54:00;100231.68962790439;;;3.5572594796673513;81.70504310673685
71642;BME280;60657;50.122;14.468;2023-01-24T10:57:04;100236.0985644422;;;3.6614023041123076;81.64972915236133
71642;BME280;60657;50.122;14.468;2023-01-24T11:00:24;100223.16354070824;;;3.672083619439995;81.5505455100328
71642;BME280;60657;50.122;14.468;2023-01-24T11:03:31;100225.54846408489;;;3.677424277103839;81.47997253376059
71642;BME280;60657;50.122;14.468;2023-01-24T11:06:37;100219.36135545549;;;3.5519188220035076;81.91103990234225
71642;BME280;60657;50.122;14.468;2023-01-24T11:09:40;100223.68792288961;;;3.5866330968184954;81.87861448081178
71642;BME280;60657;50.122;14.468;2023-01-24T11:12:47;100226.11443587886;;;3.722819867246507;81.41702906843672
71642;BME280;60657;50.122;14.468;2023-01-24T11:15:51;100219.48381888759;;;3.7575341420614947;81.44754711223011
71642;BME280;60657;50.122;14.468;2023-01-24T11:19:02;100221.90239173238;;;3.818951705195694;81.138551918822
71642;BME280;60657;50.122;14.468;2023-01-24T11:22:19;100228.82231254718;;;3.7281605249103507;81.13664454108492
71642;BME280;60657;50.122;14.468;2023-01-24T11:25:23;100229.32798212835;;;3.8937209124895062;80.7990386816205
71642;BME280;60657;50.122;14.468;2023-01-24T11:28:26;100222.45832697609;;;3.915083543144881;80.73037308308537
71642;BME280;60657;50.122;14.468;2023-01-24T11:31:32;100220.22786906641;;;3.8963912413214317;80.78759441519799
71642;BME280;60657;50.122;14.468;2023-01-24T11:34:44;100224.31402527462;;;3.915083543144881;80.75326161593041
71642;BME280;60657;50.122;14.468;2023-01-24T11:38:00;100221.92541369393;;;3.89906157015335;80.69985503929198
71642;BME280;60657;50.122;14.468;2023-01-24T11:41:25;100220.14900243134;;;3.89906157015335;80.77615014877546
71642;BME280;60657;50.122;14.468;2023-01-24T11:44:37;100223.40196673911;;;4.053940642404825;80.68459601739528
71642;BME280;60657;50.122;14.468;2023-01-24T11:47:53;100214.89834221658;;;3.9417868314641;80.86961165789273
71642;BME280;60657;50.122;14.468;2023-01-24T11:51:09;100214.52286412561;;;3.8803692683299005;80.89822232394903
71642;BME280;60657;50.122;14.468;2023-01-24T11:54:25;100214.52286412561;;;3.891050583657588;80.83909361409934
71642;BME280;60657;50.122;14.468;2023-01-24T11:57:44;100208.42440831356;;;3.8296330205233815;81.0222018768597
71642;BME280;60657;50.122;14.468;2023-01-24T12:01:01;100210.04294309064;;;3.9337758449683378;81.05462729839017
71642;BME280;60657;50.122;14.468;2023-01-24T12:04:16;100207.35533879203;;;4.00854505226215;80.62928206301976
71642;BME280;60657;50.122;14.468;2023-01-24T12:07:43;100199.3374935324;;;4.131380178530556;80.65980010681315
71642;BME280;60657;50.122;14.468;2023-01-24T12:11:00;100193.93427185818;;;3.9684901197833184;80.33173113603418
71642;BME280;60657;50.122;14.468;2023-01-24T12:14:17;100190.31464887212;;;4.104676890211337;80.04180971999695
71642;BME280;60657;50.122;14.468;2023-01-24T12:17:47;100189.77577723532;;;4.053940642404825;80.04562447547113
71642;BME280;60657;50.122;14.468;2023-01-24T12:21:07;100192.62926239811;;;4.179446097505149;79.93690394445716
71642;BME280;60657;50.122;14.468;2023-01-24T12:24:12;100194.78282417772;;;4.037918669413294;80.11047531853208
71642;BME280;60657;50.122;14.468;2023-01-24T12:27:24;100195.63138056449;;;4.080643930724044;80.33745326924544
71642;BME280;60657;50.122;14.468;2023-01-24T12:30:34;100197.56596903855;;;4.150072480354012;80.20012207217518
71642;BME280;60657;50.122;14.468;2023-01-24T12:33:45;100203.19680183951;;;4.016556038757919;79.92355230029754
71642;BME280;60657;50.122;14.468;2023-01-24T12:36:55;100202.27097357452;;;4.088654917219806;79.98077363241016
71642;BME280;60657;50.122;14.468;2023-01-24T12:40:07;100197.25732445424;;;4.021896696421763;80.21347371633479
71642;BME280;60657;50.122;14.468;2023-01-24T12:43:26;100200.34145107749;;;3.9845120927748496;80.31265735866332
71642;BME280;60657;50.122;14.468;2023-01-24T12:46:44;100194.78282417772;;;3.8883802548256625;80.41947051194019
71642;BME280;60657;50.122;14.468;2023-01-24T12:50:02;100193.77775819553;;;3.89906157015335;80.32791638056001